sensor_id;sensor_type;location;lat;lon;timestamp;pressure;altitude;pressure_sealevel;temperature
49154;BMP280;49455;52.252;9.124;2024-03-02T00:04:42;98331.47;;;7.35
49154;BMP280;49455;52.252;9.124;2024-03-02T00:09:44;98333.00;;;7.29
49154;BMP280;49455;52.252;9.124;2024-03-02T00:14:44;98333.38;;;7.28
49154;BMP280;49455;52.252;9.124;2024-03-02T00:19:45;98340.81;;;7.22
49154;BMP280;49455;52.252;9.124;2024-03-02T00:24:45;98338.25;;;7.22
49154;BMP280;49455;52.252;9.124;2024-03-02T00:29:46;98340.47;;;7.20
49154;BMP280;49455;52.252;9.124;2024-03-02T00:34:46;98343.13;;;7.13
49154;BMP280;49455;52.252;9.124;2024-03-02T00:39:50;98344.59;;;7.14
49154;BMP280;49455;52.252;9.124;2024-03-02T00:44:53;98338.44;;;7.08
49154;BMP280;49455;52.252;9.124;2024-03-02T00:49:54;98329.31;;;7.04
49154;BMP280;49455;52.252;9.124;2024-03-02T00:54:57;98330.75;;;7.05
49154;BMP280;49455;52.252;9.124;2024-03-02T00:59:57;98338.50;;;7.01
49154;BMP280;49455;52.252;9.124;2024-03-02T01:04:58;98338.59;;;6.94
49154;BMP280;49455;52.252;9.124;2024-03-02T06:49:19;98321.50;;;6.47
49154;BMP280;49455;52.252;9.124;2024-03-02T06:54:25;98328.72;;;6.59
49154;BMP280;49455;52.252;9.124;2024-03-02T06:59:26;98322.09;;;6.62
49154;BMP280;49455;52.252;9.124;2024-03-02T07:04:26;98335.19;;;6.71
49154;BMP280;49455;52.252;9.124;2024-03-02T07:09:29;98333.22;;;6.85
49154;BMP280;49455;52.252;9.124;2024-03-02T07:14:30;98340.75;;;6.99
49154;BMP280;49455;52.252;9.124;2024-03-02T07:19:33;98335.41;;;7.13
49154;BMP280;49455;52.252;9.124;2024-03-02T07:24:43;98340.34;;;7.27
49154;BMP280;49455;52.252;9.124;2024-03-02T07:29:48;98338.38;;;7.38
49154;BMP280;49455;52.252;9.124;2024-03-02T07:34:52;98331.94;;;7.53
49154;BMP280;49455;52.252;9.124;2024-03-02T07:39:52;98344.69;;;7.60
49154;BMP280;49455;52.252;9.124;2024-03-02T07:44:53;98353.47;;;7.63
49154;BMP280;49455;52.252;9.124;2024-03-02T07:49:53;98355.25;;;7.69
49154;BMP280;49455;52.252;9.124;2024-03-02T07:54:54;98366.16;;;7.77
49154;BMP280;49455;52.252;9.124;2024-03-02T07:59:55;98364.63;;;7.79
49154;BMP280;49455;52.252;9.124;2024-03-02T08:04:55;98380.03;;;7.83
49154;BMP280;49455;52.252;9.124;2024-03-02T08:09:56;98381.53;;;7.80
49154;BMP280;49455;52.252;9.124;2024-03-02T08:14:56;98370.53;;;7.80
49154;BMP280;49455;52.252;9.124;2024-03-02T08:19:57;98379.63;;;7.84
49154;BMP280;49455;52.252;9.124;2024-03-02T08:25:00;98384.78;;;7.84
49154;BMP280;49455;52.252;9.124;2024-03-02T08:30:04;98382.16;;;7.88
49154;BMP280;49455;52.252;9.124;2024-03-02T08:35:05;98386.59;;;7.87
49154;BMP280;49455;52.252;9.124;2024-03-02T08:40:07;98386.94;;;7.89
49154;BMP280;49455;52.252;9.124;2024-03-02T08:45:10;98392.72;;;7.93
49154;BMP280;49455;52.252;9.124;2024-03-02T08:50:11;98401.88;;;7.98
49154;BMP280;49455;52.252;9.124;2024-03-02T08:55:12;98399.47;;;8.11
49154;BMP280;49455;52.252;9.124;2024-03-02T09:00:12;98398.44;;;8.28
49154;BMP280;49455;52.252;9.124;2024-03-02T09:05:13;98386.19;;;8.55
49154;BMP280;49455;52.252;9.124;2024-03-02T09:10:14;98396.09;;;8.76
49154;BMP280;49455;52.252;9.124;2024-03-02T09:15:15;98407.91;;;9.12
49154;BMP280;49455;52.252;9.124;2024-03-02T09:20:16;98402.09;;;9.44
49154;BMP280;49455;52.252;9.124;2024-03-02T09:25:16;98396.84;;;9.63
49154;BMP280;49455;52.252;9.124;2024-03-02T09:30:17;98388.38;;;9.95
49154;BMP280;49455;52.252;9.124;2024-03-02T09:35:17;98394.72;;;10.07
49154;BMP280;49455;52.252;9.124;2024-03-02T09:40:21;98398.31;;;10.25
49154;BMP280;49455;52.252;9.124;2024-03-02T09:45:24;98376.13;;;10.12
49154;BMP280;49455;52.252;9.124;2024-03-02T09:50:24;98389.88;;;10.37
49154;BMP280;49455;52.252;9.124;2024-03-02T09:55:25;98401.97;;;10.40
49154;BMP280;49455;52.252;9.124;2024-03-02T10:00:25;98389.75;;;10.69
49154;BMP280;49455;52.252;9.124;2024-03-02T10:05:27;98393.81;;;10.83
49154;BMP280;49455;52.252;9.124;2024-03-02T10:10:43;98382.94;;;10.75
49154;BMP280;49455;52.252;9.124;2024-03-02T10:15:43;98391.34;;;11.04
49154;BMP280;49455;52.252;9.124;2024-03-02T10:20:44;98390.81;;;11.34
49154;BMP280;49455;52.252;9.124;2024-03-02T10:25:45;98383.78;;;11.35
49154;BMP280;49455;52.252;9.124;2024-03-02T10:30:47;98391.91;;;11.58
49154;BMP280;49455;52.252;9.124;2024-03-02T10:35:49;98383.09;;;12.02
49154;BMP280;49455;52.252;9.124;2024-03-02T10:40:50;98391.53;;;12.15
49154;BMP280;49455;52.252;9.124;2024-03-02T10:45:51;98392.19;;;12.28
49154;BMP280;49455;52.252;9.124;2024-03-02T10:50:52;98386.75;;;12.35
49154;BMP280;49455;52.252;9.124;2024-03-02T10:55:57;98390.34;;;12.51
49154;BMP280;49455;52.252;9.124;2024-03-02T11:01:02;98384.88;;;12.58
49154;BMP280;49455;52.252;9.124;2024-03-02T11:06:07;98381.81;;;12.81
49154;BMP280;49455;52.252;9.124;2024-03-02T11:11:15;98396.34;;;13.09
49154;BMP280;49455;52.252;9.124;2024-03-02T11:16:38;98391.81;;;13.40
49154;BMP280;49455;52.252;9.124;2024-03-02T11:21:39;98393.09;;;13.35
49154;BMP280;49455;52.252;9.124;2024-03-02T11:26:39;98386.66;;;13.67
49154;BMP280;49455;52.252;9.124;2024-03-02T11:31:59;98373.81;;;13.81
49154;BMP280;49455;52.252;9.124;2024-03-02T11:37:01;98388.22;;;14.09
49154;BMP280;49455;52.252;9.124;2024-03-02T11:42:02;98385.19;;;13.84
49154;BMP280;49455;52.252;9.124;2024-03-02T11:47:06;98380.84;;;14.17
49154;BMP280;49455;52.252;9.124;2024-03-02T11:52:11;98381.91;;;14.43
49154;BMP280;49455;52.252;9.124;2024-03-02T11:57:17;98383.34;;;14.53
49154;BMP280;49455;52.252;9.124;2024-03-02T12:02:21;98380.47;;;14.42
49154;BMP280;49455;52.252;9.124;2024-03-02T12:07:22;98362.19;;;14.69
49154;BMP280;49455;52.252;9.124;2024-03-02T12:12:23;98363.34;;;14.91
49154;BMP280;49455;52.252;9.124;2024-03-02T12:17:24;98365.66;;;14.57
49154;BMP280;49455;52.252;9.124;2024-03-02T12:22:24;98358.34;;;14.79
49154;BMP280;49455;52.252;9.124;2024-03-02T12:27:25;98356.28;;;14.92
49154;BMP280;49455;52.252;9.124;2024-03-02T12:32:25;98357.50;;;14.73
49154;BMP280;49455;52.252;9.124;2024-03-02T12:37:26;98366.34;;;14.66
49154;BMP280;49455;52.252;9.124;2024-03-02T12:42:27;98366.25;;;15.17
49154;BMP280;49455;52.252;9.124;2024-03-02T12:47:27;98349.31;;;15.12
49154;BMP280;49455;52.252;9.124;2024-03-02T12:52:28;98357.25;;;14.94
49154;BMP280;49455;52.252;9.124;2024-03-02T12:57:29;98356.81;;;15.19
49154;BMP280;49455;52.252;9.124;2024-03-02T13:02:31;98348.06;;;14.84
49154;BMP280;49455;52.252;9.124;2024-03-02T13:07:31;98349.53;;;15.00
49154;BMP280;49455;52.252;9.124;2024-03-02T13:12:31;98335.78;;;15.23
49154;BMP280;49455;52.252;9.124;2024-03-02T13:17:34;98346.13;;;14.94
49154;BMP280;49455;52.252;9.124;2024-03-02T13:22:35;98355.56;;;15.15
49154;BMP280;49455;52.252;9.124;2024-03-02T13:27:38;98332.06;;;15.53
49154;BMP280;49455;52.252;9.124;2024-03-02T13:32:39;98331.91;;;15.42
49154;BMP280;49455;52.252;9.124;2024-03-02T13:37:40;98325.91;;;15.27
49154;BMP280;49455;52.252;9.124;2024-03-02T13:42:40;98318.28;;;15.23
49154;BMP280;49455;52.252;9.124;2024-03-02T13:47:41;98318.03;;;15.36
49154;BMP280;49455;52.252;9.124;2024-03-02T13:52:43;98310.75;;;15.25
49154;BMP280;49455;52.252;9.124;2024-03-02T13:57:51;98308.25;;;15.60
49154;BMP280;49455;52.252;9.124;2024-03-02T14:03:00;98299.91;;;15.85
49154;BMP280;49455;52.252;9.124;2024-03-02T14:08:03;98306.25;;;16.13
49154;BMP280;49455;52.252;9.124;2024-03-02T14:13:04;98299.56;;;15.63
49154;BMP280;49455;52.252;9.124;2024-03-02T14:18:05;98292.69;;;15.65
49154;BMP280;49455;52.252;9.124;2024-03-02T14:29:25;98281.69;;;16.05
49154;BMP280;49455;52.252;9.124;2024-03-02T14:34:26;98291.25;;;16.08
49154;BMP280;49455;52.252;9.124;2024-03-02T14:39:26;98284.97;;;16.35
49154;BMP280;49455;52.252;9.124;2024-03-02T14:44:34;98285.31;;;15.78
49154;BMP280;49455;52.252;9.124;2024-03-02T14:49:38;98284.78;;;15.89
49154;BMP280;49455;52.252;9.124;2024-03-02T14:54:41;98284.19;;;15.79
49154;BMP280;49455;52.252;9.124;2024-03-02T14:59:42;98274.09;;;15.72
49154;BMP280;49455;52.252;9.124;2024-03-02T15:04:42;98273.97;;;15.23
49154;BMP280;49455;52.252;9.124;2024-03-02T15:09:46;98273.91;;;15.47
49154;BMP280;49455;52.252;9.124;2024-03-02T15:14:46;98275.69;;;15.41
49154;BMP280;49455;52.252;9.124;2024-03-02T15:19:53;98270.09;;;15.33
49154;BMP280;49455;52.252;9.124;2024-03-02T15:24:59;98271.63;;;15.25
49154;BMP280;49455;52.252;9.124;2024-03-02T15:30:04;98264.13;;;15.04
49154;BMP280;49455;52.252;9.124;2024-03-02T15:35:05;98269.28;;;15.13
49154;BMP280;49455;52.252;9.124;2024-03-02T15:40:06;98267.75;;;14.83
49154;BMP280;49455;52.252;9.124;2024-03-02T15:45:10;98269.28;;;14.66
49154;BMP280;49455;52.252;9.124;2024-03-02T15:50:10;98273.34;;;14.67
49154;BMP280;49455;52.252;9.124;2024-03-02T15:55:17;98276.00;;;14.58
49154;BMP280;49455;52.252;9.124;2024-03-02T16:00:21;98275.19;;;14.43
49154;BMP280;49455;52.252;9.124;2024-03-02T16:05:22;98265.31;;;14.23
49154;BMP280;49455;52.252;9.124;2024-03-02T16:10:22;98266.06;;;14.15
49154;BMP280;49455;52.252;9.124;2024-03-02T16:15:26;98267.75;;;14.18
49154;BMP280;49455;52.252;9.124;2024-03-02T16:20:26;98269.44;;;13.97
49154;BMP280;49455;52.252;9.124;2024-03-02T16:25:30;98266.31;;;13.66
49154;BMP280;49455;52.252;9.124;2024-03-02T16:30:32;98261.28;;;13.27
49154;BMP280;49455;52.252;9.124;2024-03-02T16:35:35;98270.97;;;12.99
49154;BMP280;49455;52.252;9.124;2024-03-02T16:40:36;98270.47;;;12.83
49154;BMP280;49455;52.252;9.124;2024-03-02T16:46:06;98278.53;;;12.67
49154;BMP280;49455;52.252;9.124;2024-03-02T16:51:06;98275.56;;;12.47
49154;BMP280;49455;52.252;9.124;2024-03-02T16:56:07;98275.16;;;12.26
49154;BMP280;49455;52.252;9.124;2024-03-02T17:01:07;98289.38;;;12.13
49154;BMP280;49455;52.252;9.124;2024-03-02T17:06:08;98284.69;;;11.99
49154;BMP280;49455;52.252;9.124;2024-03-02T17:11:08;98297.72;;;11.86
49154;BMP280;49455;52.252;9.124;2024-03-02T17:16:11;98301.75;;;11.87
49154;BMP280;49455;52.252;9.124;2024-03-02T17:21:11;98300.38;;;11.74
49154;BMP280;49455;52.252;9.124;2024-03-02T17:26:12;98304.94;;;11.70
49154;BMP280;49455;52.252;9.124;2024-03-02T17:31:12;98305.53;;;11.52
49154;BMP280;49455;52.252;9.124;2024-03-02T17:36:13;98312.06;;;11.44
49154;BMP280;49455;52.252;9.124;2024-03-02T17:41:14;98319.44;;;11.33
49154;BMP280;49455;52.252;9.124;2024-03-02T17:46:14;98315.63;;;11.25
49154;BMP280;49455;52.252;9.124;2024-03-02T17:51:15;98314.47;;;11.26
49154;BMP280;49455;52.252;9.124;2024-03-02T17:56:16;98329.00;;;11.11
49154;BMP280;49455;52.252;9.124;2024-03-02T18:01:16;98318.03;;;11.07
49154;BMP280;49455;52.252;9.124;2024-03-02T18:06:17;98320.44;;;11.02
49154;BMP280;49455;52.252;9.124;2024-03-02T18:11:20;98329.31;;;11.13
49154;BMP280;49455;52.252;9.124;2024-03-02T18:16:21;98326.91;;;11.06
49154;BMP280;49455;52.252;9.124;2024-03-02T18:21:21;98325.81;;;10.95
49154;BMP280;49455;52.252;9.124;2024-03-02T18:26:21;98327.75;;;10.91
49154;BMP280;49455;52.252;9.124;2024-03-02T18:31:22;98321.78;;;10.81
49154;BMP280;49455;52.252;9.124;2024-03-02T18:36:22;98331.78;;;10.67
49154;BMP280;49455;52.252;9.124;2024-03-02T18:41:32;98329.59;;;10.65
49154;BMP280;49455;52.252;9.124;2024-03-02T18:46:33;98331.28;;;10.59
49154;BMP280;49455;52.252;9.124;2024-03-02T18:51:33;98333.53;;;10.57
49154;BMP280;49455;52.252;9.124;2024-03-02T18:56:34;98326.84;;;10.60
49154;BMP280;49455;52.252;9.124;2024-03-02T19:01:34;98333.53;;;10.57
49154;BMP280;49455;52.252;9.124;2024-03-02T19:06:35;98333.41;;;10.48
49154;BMP280;49455;52.252;9.124;2024-03-02T19:11:35;98334.47;;;10.51
49154;BMP280;49455;52.252;9.124;2024-03-02T19:16:36;98333.72;;;10.50
49154;BMP280;49455;52.252;9.124;2024-03-02T19:21:36;98338.78;;;10.41
49154;BMP280;49455;52.252;9.124;2024-03-02T19:26:37;98341.56;;;10.34
49154;BMP280;49455;52.252;9.124;2024-03-02T19:31:37;98348.28;;;10.32
49154;BMP280;49455;52.252;9.124;2024-03-02T19:36:38;98346.94;;;10.27
49154;BMP280;49455;52.252;9.124;2024-03-02T19:41:38;98343.38;;;10.21
49154;BMP280;49455;52.252;9.124;2024-03-02T19:46:38;98334.69;;;10.15
49154;BMP280;49455;52.252;9.124;2024-03-02T19:51:39;98340.34;;;10.10
49154;BMP280;49455;52.252;9.124;2024-03-02T19:56:39;98330.59;;;10.01
49154;BMP280;49455;52.252;9.124;2024-03-02T20:01:40;98337.44;;;10.08
49154;BMP280;49455;52.252;9.124;2024-03-02T20:06:40;98329.84;;;10.01
49154;BMP280;49455;52.252;9.124;2024-03-02T20:11:41;98328.84;;;9.98
49154;BMP280;49455;52.252;9.124;2024-03-02T20:16:44;98319.16;;;9.86
49154;BMP280;49455;52.252;9.124;2024-03-02T20:21:45;98315.53;;;9.84
49154;BMP280;49455;52.252;9.124;2024-03-02T20:26:48;98314.78;;;9.83
49154;BMP280;49455;52.252;9.124;2024-03-02T20:31:51;98306.81;;;9.78
49154;BMP280;49455;52.252;9.124;2024-03-02T20:36:53;98309.56;;;9.87
49154;BMP280;49455;52.252;9.124;2024-03-02T20:42:00;98309.03;;;9.92
49154;BMP280;49455;52.252;9.124;2024-03-02T20:47:00;98311.06;;;10.00
49154;BMP280;49455;52.252;9.124;2024-03-02T20:52:01;98308.19;;;9.98
49154;BMP280;49455;52.252;9.124;2024-03-02T20:57:02;98308.59;;;9.97
49154;BMP280;49455;52.252;9.124;2024-03-02T21:02:03;98305.84;;;9.88
49154;BMP280;49455;52.252;9.124;2024-03-02T21:07:03;98309.75;;;9.80
49154;BMP280;49455;52.252;9.124;2024-03-02T21:12:04;98298.56;;;9.83
49154;BMP280;49455;52.252;9.124;2024-03-02T21:17:04;98292.28;;;9.84
49154;BMP280;49455;52.252;9.124;2024-03-02T21:22:07;98301.84;;;9.71
49154;BMP280;49455;52.252;9.124;2024-03-02T21:27:09;98296.75;;;9.67
49154;BMP280;49455;52.252;9.124;2024-03-02T21:32:10;98288.78;;;9.62
49154;BMP280;49455;52.252;9.124;2024-03-02T21:37:10;98285.69;;;9.67
49154;BMP280;49455;52.252;9.124;2024-03-02T21:42:10;98287.66;;;9.63
49154;BMP280;49455;52.252;9.124;2024-03-02T21:47:11;98287.81;;;9.72
49154;BMP280;49455;52.252;9.124;2024-03-02T21:52:11;98285.88;;;9.60
49154;BMP280;49455;52.252;9.124;2024-03-02T21:57:12;98283.13;;;9.51
49154;BMP280;49455;52.252;9.124;2024-03-02T22:02:12;98285.41;;;9.33
49154;BMP280;49455;52.252;9.124;2024-03-02T22:07:13;98282.28;;;9.25
49154;BMP280;49455;52.252;9.124;2024-03-02T22:12:13;98271.38;;;9.18
49154;BMP280;49455;52.252;9.124;2024-03-02T22:17:14;98267.66;;;9.19
49154;BMP280;49455;52.252;9.124;2024-03-02T22:22:14;98262.50;;;9.19
49154;BMP280;49455;52.252;9.124;2024-03-02T22:27:15;98265.50;;;9.17
49154;BMP280;49455;52.252;9.124;2024-03-02T22:32:48;98259.59;;;9.17
49154;BMP280;49455;52.252;9.124;2024-03-02T22:37:54;98246.53;;;9.08
49154;BMP280;49455;52.252;9.124;2024-03-02T22:48:52;98259.91;;;9.03
49154;BMP280;49455;52.252;9.124;2024-03-02T22:54:07;98251.06;;;9.04
49154;BMP280;49455;52.252;9.124;2024-03-02T23:05:26;98243.47;;;9.29
49154;BMP280;49455;52.252;9.124;2024-03-02T23:17:05;98250.97;;;9.23
49154;BMP280;49455;52.252;9.124;2024-03-02T23:22:06;98249.06;;;9.27
49154;BMP280;49455;52.252;9.124;2024-03-02T23:27:06;98250.41;;;9.32
49154;BMP280;49455;52.252;9.124;2024-03-02T23:32:19;98234.41;;;9.37
49154;BMP280;49455;52.252;9.124;2024-03-02T23:37:22;98229.66;;;9.35
